createdAt,value
2019-03-26T00:00:31.684Z,4.40
2019-03-26T00:03:01.034Z,4.45
2019-03-26T00:05:30.395Z,4.37
2019-03-26T00:08:00.363Z,5.03
2019-03-26T00:10:29.731Z,5.08
2019-03-26T00:12:59.101Z,5.10
2019-03-26T00:15:28.493Z,5.50
2019-03-26T00:17:57.866Z,4.95
2019-03-26T00:20:27.248Z,5.35
2019-03-26T00:22:56.626Z,5.53
2019-03-26T00:25:25.993Z,5.53
2019-03-26T00:27:55.361Z,6.22
2019-03-26T00:30:24.759Z,5.57
2019-03-26T00:32:54.205Z,6.08
2019-03-26T00:35:23.578Z,5.70
2019-03-26T00:37:52.941Z,5.62
2019-03-26T00:40:22.301Z,5.90
2019-03-26T00:42:51.656Z,5.78
2019-03-26T00:45:21.847Z,6.87
2019-03-26T00:47:51.209Z,5.67
2019-03-26T00:50:20.568Z,5.95
2019-03-26T00:52:50.752Z,5.87
2019-03-26T00:55:22.826Z,6.03
2019-03-26T00:57:51.216Z,5.50
2019-03-26T01:00:39.379Z,6.20
2019-03-26T01:03:08.873Z,6.08
2019-03-26T01:05:38.376Z,5.67
2019-03-26T01:08:08.319Z,6.12
2019-03-26T01:10:37.696Z,6.30
2019-03-26T01:13:07.061Z,5.92
2019-03-26T01:15:36.444Z,6.10
2019-03-26T01:18:05.804Z,6.33
2019-03-26T01:20:35.324Z,5.75
2019-03-26T01:23:04.763Z,5.62
2019-03-26T01:25:34.131Z,5.72
2019-03-26T01:28:03.520Z,5.70
2019-03-26T01:30:33.357Z,6.37
2019-03-26T01:33:02.724Z,6.12
2019-03-26T01:35:32.085Z,5.60
2019-03-26T01:38:01.468Z,6.03
2019-03-26T01:40:30.834Z,5.78
2019-03-26T01:43:00.204Z,6.12
2019-03-26T01:45:29.579Z,6.20
2019-03-26T01:47:59.216Z,6.05
2019-03-26T01:50:28.568Z,5.95
2019-03-26T01:52:58.232Z,6.92
2019-03-26T01:55:27.599Z,6.30
2019-03-26T01:57:57.054Z,6.25
2019-03-26T02:00:26.490Z,6.40
2019-03-26T02:02:55.843Z,6.25
2019-03-26T02:05:25.219Z,6.90
2019-03-26T02:07:54.585Z,6.20
2019-03-26T02:10:23.948Z,5.53
2019-03-26T02:12:53.317Z,6.30
2019-03-26T02:15:31.574Z,6.37
2019-03-26T02:18:01.013Z,5.17
2019-03-26T02:20:30.388Z,5.50
2019-03-26T02:22:59.823Z,6.35
2019-03-26T02:25:30.089Z,5.67
2019-03-26T02:27:59.460Z,6.62
2019-03-26T02:30:29.474Z,6.17
2019-03-26T02:32:58.959Z,6.03
2019-03-26T02:35:28.303Z,5.65
2019-03-26T02:37:57.956Z,5.20
2019-03-26T02:40:27.791Z,5.63
2019-03-26T02:42:57.151Z,5.35
2019-03-26T02:45:26.527Z,5.67
2019-03-26T02:47:55.890Z,5.53
2019-03-26T02:50:25.539Z,4.70
2019-03-26T02:52:55.093Z,5.80
2019-03-26T02:55:24.456Z,5.53
2019-03-26T02:57:53.834Z,5.10
2019-03-26T03:00:23.230Z,5.53
2019-03-26T03:02:52.582Z,5.72
2019-03-26T03:05:34.253Z,5.63
2019-03-26T03:07:53.037Z,4.47
2019-03-26T03:10:22.416Z,4.60
2019-03-26T03:12:51.771Z,5.00
2019-03-26T03:15:21.156Z,4.70
2019-03-26T03:17:50.525Z,4.15
2019-03-26T03:20:19.893Z,4.73
2019-03-26T03:22:49.454Z,4.65
2019-03-26T03:25:18.826Z,4.50
2019-03-26T03:27:48.291Z,4.45
2019-03-26T03:30:18.186Z,4.50
2019-03-26T03:32:47.507Z,4.42
2019-03-26T03:35:16.868Z,4.63
2019-03-26T03:37:46.250Z,4.60
2019-03-26T03:40:15.683Z,4.43
2019-03-26T03:42:44.870Z,4.37
2019-03-26T03:45:17.815Z,4.53
2019-03-26T03:47:47.608Z,4.03
2019-03-26T03:50:16.974Z,4.33
2019-03-26T03:52:47.190Z,4.20
2019-03-26T03:55:16.626Z,4.10
2019-03-26T03:57:52.577Z,3.52
2019-03-26T04:00:38.544Z,4.27
2019-03-26T04:03:10.231Z,3.27
2019-03-26T04:05:40.002Z,3.20
2019-03-26T04:08:09.371Z,3.75
2019-03-26T04:10:38.739Z,3.72
2019-03-26T04:13:08.172Z,2.92
2019-03-26T04:15:37.551Z,3.02
2019-03-26T04:18:07.051Z,3.45
2019-03-26T04:20:36.422Z,3.30
2019-03-26T04:23:06.377Z,2.72
2019-03-26T04:25:35.765Z,3.15
2019-03-26T04:28:05.099Z,2.92
2019-03-26T04:30:35.022Z,3.50
2019-03-26T04:33:04.411Z,2.92
2019-03-26T04:35:34.062Z,2.80
2019-03-26T04:38:03.430Z,2.83
2019-03-26T04:40:33.041Z,3.00
2019-03-26T04:43:02.409Z,3.42
2019-03-26T04:45:32.071Z,3.95
2019-03-26T04:48:01.431Z,3.62
2019-03-26T04:50:30.800Z,4.90
2019-03-26T04:53:00.173Z,4.40
2019-03-26T04:55:29.737Z,4.97
2019-03-26T04:57:59.099Z,4.90
2019-03-26T05:00:28.491Z,5.17
2019-03-26T05:02:57.862Z,5.62
2019-03-26T05:05:27.235Z,6.70
2019-03-26T05:07:56.653Z,7.75
2019-03-26T05:10:26.025Z,7.03
2019-03-26T05:12:55.398Z,8.23
2019-03-26T05:15:24.774Z,6.90
2019-03-26T05:17:56.638Z,7.65
2019-03-26T05:20:25.227Z,7.50
2019-03-26T05:22:54.592Z,7.55
2019-03-26T05:25:23.958Z,7.53
2019-03-26T05:27:53.331Z,7.65
2019-03-26T05:30:22.886Z,7.10
2019-03-26T05:32:52.253Z,7.90
2019-03-26T05:35:21.627Z,7.30
2019-03-26T05:37:51.009Z,7.60
2019-03-26T05:40:20.369Z,8.20
2019-03-26T05:42:49.733Z,8.50
2019-03-26T05:45:19.116Z,9.33
2019-03-26T05:47:48.481Z,9.55
2019-03-26T05:50:17.920Z,10.30
2019-03-26T05:52:47.871Z,10.72
2019-03-26T05:55:17.318Z,10.28
2019-03-26T05:57:46.727Z,8.93
2019-03-26T06:00:17.870Z,9.47
2019-03-26T06:02:47.236Z,9.30
2019-03-26T06:05:16.602Z,9.45
2019-03-26T06:07:45.977Z,9.53
2019-03-26T06:10:15.503Z,9.70
2019-03-26T06:12:44.865Z,8.75
2019-03-26T06:15:14.551Z,9.73
2019-03-26T06:17:43.950Z,10.28
2019-03-26T06:20:13.760Z,11.13
2019-03-26T06:22:43.139Z,12.18
2019-03-26T06:25:12.852Z,11.40
2019-03-26T06:27:42.223Z,12.07
2019-03-26T06:30:12.038Z,11.80
2019-03-26T06:32:41.400Z,11.97
2019-03-26T06:35:12.314Z,12.28
2019-03-26T06:37:41.968Z,12.33
2019-03-26T06:40:12.550Z,11.63
2019-03-26T06:42:41.944Z,11.63
2019-03-26T06:45:12.123Z,11.08
2019-03-26T06:47:41.504Z,11.12
2019-03-26T06:50:13.688Z,10.18
2019-03-26T06:52:43.368Z,9.68
2019-03-26T06:55:13.987Z,9.67
2019-03-26T06:57:43.391Z,8.35
2019-03-26T07:00:14.961Z,8.23
2019-03-26T07:02:44.763Z,7.47
2019-03-26T07:05:14.374Z,8.35
2019-03-26T07:07:43.818Z,7.47
2019-03-26T07:10:13.512Z,7.72
2019-03-26T07:12:42.879Z,7.12
2019-03-26T07:15:12.392Z,7.25
2019-03-26T07:17:41.765Z,7.62
2019-03-26T07:20:12.165Z,6.05
2019-03-26T07:22:41.608Z,7.08
2019-03-26T07:25:11.786Z,6.20
2019-03-26T07:27:41.155Z,6.30
2019-03-26T07:30:14.829Z,5.55
2019-03-26T07:32:44.285Z,5.33
2019-03-26T07:35:13.721Z,5.17
2019-03-26T07:37:45.640Z,5.53
2019-03-26T07:40:15.159Z,5.20
2019-03-26T07:42:44.542Z,5.42
2019-03-26T07:45:14.110Z,5.37
2019-03-26T07:47:43.476Z,4.65
2019-03-26T07:50:14.073Z,5.63
2019-03-26T07:52:43.770Z,4.78
2019-03-26T07:55:13.341Z,4.40
2019-03-26T07:57:42.723Z,6.15
2019-03-26T08:00:13.263Z,4.00
2019-03-26T08:02:42.677Z,4.08
2019-03-26T08:05:12.113Z,4.22
2019-03-26T08:07:41.504Z,4.60
2019-03-26T08:10:11.198Z,4.55
2019-03-26T08:12:40.595Z,3.75
2019-03-26T08:15:10.766Z,4.75
2019-03-26T08:17:40.147Z,3.90
2019-03-26T08:20:12.492Z,4.50
2019-03-26T08:22:40.901Z,4.45
2019-03-26T08:25:10.581Z,4.42
2019-03-26T08:27:39.965Z,4.60
2019-03-26T08:30:09.972Z,4.40
2019-03-26T08:32:39.354Z,3.50
2019-03-26T08:35:09.357Z,4.22
2019-03-26T08:37:38.739Z,3.72
2019-03-26T08:40:10.385Z,3.90
2019-03-26T08:42:39.759Z,4.25
2019-03-26T08:45:10.753Z,3.45
2019-03-26T08:47:40.127Z,2.83
2019-03-26T08:50:11.165Z,2.58
2019-03-26T08:52:40.593Z,2.70
2019-03-26T08:55:13.276Z,3.27
2019-03-26T08:57:42.633Z,4.45
2019-03-26T09:00:14.950Z,3.20
2019-03-26T09:02:44.321Z,2.80
2019-03-26T09:05:15.050Z,2.22
2019-03-26T09:07:44.607Z,2.35
2019-03-26T09:10:14.391Z,1.97
2019-03-26T09:12:43.814Z,2.17
2019-03-26T09:15:14.560Z,2.20
2019-03-26T09:17:44.841Z,2.40
2019-03-26T09:20:14.757Z,2.30
2019-03-26T09:25:30.390Z,2.42
2019-03-26T09:27:59.758Z,2.05
2019-03-26T09:30:29.142Z,2.95
2019-03-26T09:32:58.544Z,3.02
2019-03-26T09:35:27.916Z,2.80
2019-03-26T09:37:57.288Z,2.70
2019-03-26T09:40:26.679Z,2.67
2019-03-26T09:42:56.049Z,2.52
2019-03-26T09:45:25.438Z,2.70
2019-03-26T09:47:55.140Z,1.42
2019-03-26T09:50:35.885Z,2.05
2019-03-26T09:53:05.522Z,2.55
2019-03-26T09:55:34.989Z,2.20
2019-03-26T09:58:04.690Z,2.00
2019-03-26T10:00:34.452Z,1.95
2019-03-26T10:03:03.782Z,2.45
2019-03-26T10:05:33.164Z,1.87
2019-03-26T10:08:03.802Z,2.62
2019-03-26T10:10:33.171Z,2.12
2019-03-26T10:13:02.788Z,2.30
2019-03-26T10:15:32.178Z,1.98
2019-03-26T10:18:01.546Z,2.02
2019-03-26T10:20:30.918Z,2.15
2019-03-26T10:23:00.479Z,2.20
2019-03-26T10:25:29.857Z,2.45
2019-03-26T10:27:59.230Z,2.42
2019-03-26T10:30:40.510Z,2.00
2019-03-26T10:33:10.146Z,2.30
2019-03-26T10:35:39.527Z,2.70
2019-03-26T10:38:08.906Z,1.92
2019-03-26T10:40:39.679Z,2.08
2019-03-26T10:43:09.388Z,2.20
2019-03-26T10:45:38.776Z,2.37
2019-03-26T10:48:08.157Z,3.37
2019-03-26T10:50:37.537Z,2.65
2019-03-26T10:53:07.356Z,1.50
2019-03-26T10:55:36.720Z,1.82
2019-03-26T10:58:06.097Z,1.80
2019-03-26T11:00:35.554Z,2.40
2019-03-26T11:03:04.993Z,2.05
2019-03-26T11:05:34.705Z,2.00
2019-03-26T11:08:04.181Z,2.10
2019-03-26T11:10:34.797Z,2.15
2019-03-26T11:13:04.163Z,2.02
2019-03-26T11:15:33.862Z,3.02
2019-03-26T11:18:03.246Z,2.20
2019-03-26T11:20:32.620Z,1.95
2019-03-26T11:23:02.009Z,2.60
2019-03-26T11:25:31.401Z,2.65
2019-03-26T11:28:00.785Z,2.15
2019-03-26T11:30:30.182Z,2.27
2019-03-26T11:32:59.556Z,2.42
2019-03-26T11:35:29.172Z,2.25
2019-03-26T11:37:59.379Z,1.52
2019-03-26T11:40:28.748Z,2.10
2019-03-26T11:42:58.122Z,1.80
2019-03-26T11:45:27.516Z,2.40
2019-03-26T11:47:56.880Z,1.57
2019-03-26T11:50:26.249Z,2.23
2019-03-26T11:52:55.630Z,2.12
2019-03-26T11:55:25.008Z,2.23
2019-03-26T11:57:54.377Z,3.27
2019-03-26T12:00:25.638Z,2.20
2019-03-26T12:02:55.023Z,2.12
2019-03-26T12:05:24.399Z,1.70
2019-03-26T12:07:53.791Z,1.40
2019-03-26T12:10:23.163Z,1.83
2019-03-26T12:12:53.637Z,1.85
2019-03-26T12:15:23.032Z,2.10
2019-03-26T12:17:52.409Z,2.15
2019-03-26T12:20:21.817Z,1.93
2019-03-26T12:22:51.697Z,2.00
2019-03-26T12:25:21.064Z,2.50
2019-03-26T12:27:50.443Z,2.17
2019-03-26T12:30:32.395Z,1.70
2019-03-26T12:33:01.760Z,1.90
2019-03-26T12:35:31.537Z,2.40
2019-03-26T12:38:02.506Z,2.00
2019-03-26T12:40:31.984Z,2.50
2019-03-26T12:43:01.388Z,2.27
2019-03-26T12:45:30.768Z,2.20
2019-03-26T12:48:00.136Z,2.40
2019-03-26T12:50:32.038Z,2.30
2019-03-26T12:53:00.624Z,2.10
2019-03-26T12:55:29.994Z,2.33
2019-03-26T12:57:59.387Z,1.87
2019-03-26T13:00:35.039Z,2.55
2019-03-26T13:03:04.422Z,1.67
2019-03-26T13:05:33.799Z,2.05
2019-03-26T13:08:03.178Z,1.60
2019-03-26T13:10:32.552Z,1.80
2019-03-26T13:13:01.937Z,1.70
2019-03-26T13:15:31.556Z,1.45
2019-03-26T13:18:00.931Z,1.50
2019-03-26T13:20:30.297Z,1.57
2019-03-26T13:22:59.984Z,1.10
2019-03-26T13:25:29.360Z,1.00
2019-03-26T13:27:58.736Z,1.30
2019-03-26T13:30:28.141Z,1.30
2019-03-26T13:32:57.511Z,1.30
2019-03-26T13:35:26.888Z,1.22
2019-03-26T13:37:56.263Z,1.75
2019-03-26T13:40:27.608Z,1.40
2019-03-26T13:42:56.727Z,1.60
2019-03-26T13:45:26.412Z,1.97
2019-03-26T13:47:55.779Z,1.80
2019-03-26T13:50:25.161Z,1.40
2019-03-26T13:52:54.544Z,1.75
2019-03-26T13:55:23.960Z,1.70
2019-03-26T13:57:53.330Z,1.85
2019-03-26T14:00:36.066Z,1.50
2019-03-26T14:03:06.043Z,2.02
2019-03-26T14:05:35.410Z,2.02
2019-03-26T14:08:05.060Z,1.47
2019-03-26T14:10:40.782Z,1.77
2019-03-26T14:13:05.599Z,1.85
2019-03-26T14:15:34.811Z,1.70
2019-03-26T14:18:04.262Z,1.45
2019-03-26T14:20:33.638Z,1.60
2019-03-26T14:23:03.346Z,1.40
2019-03-26T14:25:32.714Z,1.30
2019-03-26T14:28:02.159Z,1.60
2019-03-26T14:30:40.578Z,1.70
2019-03-26T14:33:10.291Z,1.60
2019-03-26T14:35:39.641Z,1.80
2019-03-26T14:38:09.265Z,1.52
2019-03-26T14:40:39.146Z,1.67
2019-03-26T14:43:08.593Z,1.70
2019-03-26T14:45:38.042Z,1.60
2019-03-26T14:48:07.404Z,1.82
2019-03-26T14:50:36.788Z,1.72
2019-03-26T14:53:06.166Z,1.45
2019-03-26T14:55:35.545Z,1.40
2019-03-26T14:58:04.916Z,1.77
2019-03-26T15:00:34.608Z,1.47
2019-03-26T15:03:03.982Z,1.55
2019-03-26T15:05:33.365Z,1.90
2019-03-26T15:08:02.802Z,1.50
2019-03-26T15:10:32.169Z,1.65
2019-03-26T15:13:01.544Z,1.92
2019-03-26T15:15:30.928Z,2.20
2019-03-26T15:18:00.320Z,2.15
2019-03-26T15:20:30.467Z,1.85
2019-03-26T15:23:00.141Z,1.98
2019-03-26T15:25:29.514Z,1.77
2019-03-26T15:27:58.887Z,1.67
2019-03-26T15:30:28.267Z,2.07
2019-03-26T15:32:57.641Z,1.27
2019-03-26T15:35:27.012Z,1.60
2019-03-26T15:37:56.566Z,1.70
2019-03-26T15:40:25.935Z,1.80
2019-03-26T15:42:55.316Z,1.10
2019-03-26T15:45:25.240Z,1.60
2019-03-26T15:47:54.605Z,1.57
2019-03-26T15:50:41.975Z,1.23
2019-03-26T15:53:11.344Z,1.80
2019-03-26T15:55:41.681Z,1.77
2019-03-26T15:58:11.458Z,1.72
2019-03-26T16:00:40.826Z,1.70
2019-03-26T16:03:10.192Z,1.45
2019-03-26T16:05:40.081Z,1.92
2019-03-26T16:08:09.448Z,1.72
2019-03-26T16:10:38.828Z,2.17
2019-03-26T16:13:08.209Z,1.42
2019-03-26T16:15:44.198Z,1.77
2019-03-26T16:18:09.320Z,1.50
2019-03-26T16:20:38.705Z,1.57
2019-03-26T16:26:23.958Z,1.55
2019-03-26T16:28:53.325Z,1.30
2019-03-26T17:28:35.779Z,1.55
2019-03-26T17:31:05.151Z,2.12
2019-03-26T17:33:34.529Z,1.52
2019-03-26T17:36:03.915Z,1.87
2019-03-26T17:38:33.283Z,2.15
2019-03-26T17:41:03.054Z,1.60
2019-03-26T17:43:32.441Z,2.00
2019-03-26T17:46:01.896Z,1.57
2019-03-26T17:48:31.312Z,2.10
2019-03-26T17:51:00.894Z,1.85
2019-03-26T17:53:30.288Z,2.10
2019-03-26T17:55:59.654Z,1.77
2019-03-26T17:58:29.038Z,1.77
2019-03-26T18:00:58.423Z,1.65
2019-03-26T18:03:27.792Z,3.15
2019-03-26T18:05:57.514Z,2.10
2019-03-26T18:08:26.891Z,1.62
2019-03-26T18:10:56.259Z,2.33
2019-03-26T18:13:25.934Z,2.27
2019-03-26T18:15:55.312Z,1.87
2019-03-26T18:18:24.673Z,1.90
2019-03-26T18:20:54.054Z,1.98
2019-03-26T18:23:23.431Z,2.20
2019-03-26T18:25:52.802Z,2.27
2019-03-26T18:28:22.177Z,1.60
2019-03-26T18:30:52.873Z,1.95
2019-03-26T18:33:22.319Z,1.92
2019-03-26T18:35:51.748Z,2.30
2019-03-26T18:38:21.117Z,1.92
2019-03-26T18:40:50.498Z,2.15
2019-03-26T18:43:19.896Z,2.22
2019-03-26T18:45:49.266Z,4.22
2019-03-26T18:48:18.631Z,2.35
2019-03-26T18:50:48.018Z,2.42
2019-03-26T18:53:17.418Z,3.45
2019-03-26T18:55:46.787Z,5.17
2019-03-26T18:58:16.943Z,2.77
2019-03-26T19:00:46.309Z,2.10
2019-03-26T19:03:15.685Z,2.45
2019-03-26T19:05:45.222Z,2.20
2019-03-26T19:08:14.590Z,2.65
2019-03-26T19:10:43.966Z,2.20
2019-03-26T19:13:19.431Z,2.47
2019-03-26T19:15:44.439Z,2.55
2019-03-26T19:18:13.806Z,2.40
2019-03-26T19:20:43.231Z,2.08
2019-03-26T19:23:12.604Z,2.22
2019-03-26T19:25:41.979Z,2.10
2019-03-26T19:28:11.376Z,2.12
2019-03-26T19:30:40.755Z,2.75
2019-03-26T19:33:11.203Z,2.12
2019-03-26T19:35:40.576Z,2.35
2019-03-26T19:38:09.954Z,2.90
2019-03-26T19:40:39.318Z,1.92
2019-03-26T19:43:11.232Z,2.22
2019-03-26T19:45:40.112Z,2.50
2019-03-26T19:48:09.485Z,2.30
2019-03-26T19:50:38.875Z,2.27
2019-03-26T19:53:08.246Z,1.90
2019-03-26T19:55:37.618Z,2.15
2019-03-26T19:58:06.996Z,2.20
2019-03-26T20:00:36.617Z,2.12
2019-03-26T20:03:05.987Z,2.00
2019-03-26T20:05:35.853Z,1.98
2019-03-26T20:08:05.174Z,2.47
2019-03-26T20:10:34.557Z,2.27
2019-03-26T20:13:03.924Z,2.20
2019-03-26T20:15:33.296Z,2.15
2019-03-26T20:18:02.671Z,2.52
2019-03-26T20:20:32.058Z,1.90
2019-03-26T20:23:01.431Z,2.70
2019-03-26T20:25:30.807Z,2.20
2019-03-26T20:28:00.221Z,2.52
2019-03-26T20:30:29.658Z,2.33
2019-03-26T20:32:59.050Z,2.65
2019-03-26T20:35:29.878Z,2.37
2019-03-26T20:37:59.258Z,2.72
2019-03-26T20:40:28.634Z,2.10
2019-03-26T20:42:58.015Z,3.12
2019-03-26T20:45:27.384Z,2.60
2019-03-26T20:47:56.752Z,2.60
2019-03-26T20:50:26.733Z,2.58
2019-03-26T20:52:56.106Z,1.87
2019-03-26T20:55:34.201Z,3.23
2019-03-26T20:58:03.982Z,2.12
2019-03-26T21:00:43.175Z,2.25
2019-03-26T21:03:12.613Z,2.40
2019-03-26T21:05:41.983Z,2.27
2019-03-26T21:08:11.407Z,2.98
2019-03-26T21:10:41.501Z,2.45
2019-03-26T21:13:10.884Z,2.70
2019-03-26T21:15:42.693Z,2.75
2019-03-26T21:18:11.410Z,2.50
2019-03-26T21:20:41.121Z,5.55
2019-03-26T21:23:10.489Z,5.60
2019-03-26T21:25:39.876Z,5.95
2019-03-26T21:28:09.254Z,6.12
2019-03-26T21:30:38.636Z,5.72
2019-03-26T21:33:08.038Z,5.92
2019-03-26T21:35:38.443Z,7.03
2019-03-26T21:38:07.851Z,6.45
2019-03-26T21:40:37.188Z,6.47
2019-03-26T21:43:07.133Z,5.90
2019-03-26T21:45:38.513Z,5.65
2019-03-26T21:48:08.608Z,4.70
2019-03-26T21:50:37.995Z,4.78
2019-03-26T21:53:07.646Z,4.58
2019-03-26T21:55:37.824Z,4.45
2019-03-26T21:58:07.267Z,4.45
2019-03-26T22:00:36.617Z,4.12
2019-03-26T22:03:06.160Z,4.08
2019-03-26T22:05:35.545Z,3.58
2019-03-26T22:08:04.921Z,3.33
2019-03-26T22:10:34.334Z,3.30
2019-03-26T22:13:03.833Z,3.00
2019-03-26T22:15:33.251Z,3.10
2019-03-26T22:18:02.946Z,2.90
2019-03-26T22:20:32.324Z,2.45
2019-03-26T22:23:01.806Z,2.83
2019-03-26T22:25:31.484Z,2.83
2019-03-26T22:28:00.838Z,2.77
2019-03-26T22:30:30.216Z,2.77
2019-03-26T22:32:59.590Z,2.65
2019-03-26T22:35:28.962Z,2.90
2019-03-26T22:37:59.383Z,3.02
2019-03-26T22:40:29.057Z,2.30
2019-03-26T22:42:58.417Z,2.40
2019-03-26T22:45:27.788Z,2.00
2019-03-26T22:47:57.196Z,2.27
2019-03-26T22:50:26.653Z,2.30
2019-03-26T22:52:56.030Z,2.45
2019-03-26T22:55:25.422Z,2.60
2019-03-26T22:57:54.787Z,2.58
2019-03-26T23:00:25.739Z,2.40
2019-03-26T23:02:56.188Z,2.12
2019-03-26T23:05:25.563Z,2.67
2019-03-26T23:07:54.927Z,2.10
2019-03-26T23:10:24.306Z,2.40
2019-03-26T23:12:53.750Z,2.52
2019-03-26T23:15:25.945Z,2.10
2019-03-26T23:17:55.339Z,2.83
2019-03-26T23:20:24.779Z,2.23
2019-03-26T23:22:55.454Z,2.10
2019-03-26T23:25:25.234Z,2.70
2019-03-26T23:27:54.605Z,2.83
2019-03-26T23:30:24.042Z,2.00
2019-03-26T23:32:53.411Z,2.67
2019-03-26T23:35:22.794Z,2.27
2019-03-26T23:37:52.159Z,2.50
2019-03-26T23:40:22.795Z,2.20
2019-03-26T23:42:52.163Z,2.33
2019-03-26T23:45:21.596Z,2.37
2019-03-26T23:47:51.701Z,2.45
2019-03-26T23:50:21.092Z,2.63
2019-03-26T23:52:50.463Z,2.40
2019-03-26T23:55:19.829Z,2.20
2019-03-26T23:57:49.198Z,2.55
